Time;durP1;ratioP1;P1;durP2;ratioP2;P2;SDS_P1;SDS_P2;PMS_P1;PMS_P2;Temp;Humidity;BMP_temperature;BMP_pressure;BME280_temperature;BME280_humidity;BME280_pressure;Samples;Min_cycle;Max_cycle;Signal;HPM_P1;HPM_P2
2023/05/17 00:02:09;;;;;;;8.73;7.83;;;;;;;8.60;100.00;96385.38;5051436;27;101898;-61
2023/05/17 00:04:45;;;;;;;8.97;7.97;;;;;;;8.53;100.00;96386.56;5050988;27;102346;-61
2023/05/17 00:07:12;;;;;;;12.17;8.90;;;;;;;8.54;100.00;96385.53;5053025;27;102577;-61
2023/05/17 00:09:39;;;;;;;10.47;8.43;;;;;;;8.54;100.00;96390.81;5050460;27;102371;-61
2023/05/17 00:12:06;;;;;;;8.70;7.90;;;;;;;8.47;100.00;96393.63;5050758;27;103129;-61
2023/05/17 00:14:33;;;;;;;10.67;8.43;;;;;;;8.46;100.00;96397.31;5050727;27;102224;-60
2023/05/17 00:17:00;;;;;;;11.47;8.73;;;;;;;8.52;100.00;96398.22;5049547;27;105081;-61
2023/05/17 00:19:27;;;;;;;11.63;9.10;;;;;;;8.54;100.00;96404.06;5048629;27;103756;-61
2023/05/17 00:21:55;;;;;;;13.07;9.87;;;;;;;8.53;100.00;96405.13;5050914;27;101799;-61
2023/05/17 00:24:23;;;;;;;10.53;8.90;;;;;;;8.56;100.00;96409.97;5067519;27;103259;-61
2023/05/17 00:26:50;;;;;;;9.67;8.57;;;;;;;8.53;100.00;96405.13;5072797;27;103808;-61
2023/05/17 00:29:17;;;;;;;14.60;9.50;;;;;;;8.48;100.00;96412.97;5070367;27;102305;-61
2023/05/17 00:31:44;;;;;;;11.50;8.57;;;;;;;8.53;100.00;96405.94;5070530;27;103083;-61
2023/05/17 00:34:13;;;;;;;9.70;8.70;;;;;;;8.57;100.00;96412.34;5067163;27;102199;-61
2023/05/17 00:36:40;;;;;;;11.23;8.20;;;;;;;8.47;100.00;96411.38;5050986;27;102364;-61
2023/05/17 00:39:10;;;;;;;10.57;8.40;;;;;;;8.49;100.00;96414.56;5049850;27;102541;-61
2023/05/17 00:41:37;;;;;;;9.53;7.90;;;;;;;8.52;100.00;96420.22;5049426;27;102028;-61
2023/05/17 00:47:26;;;;;;;9.93;8.33;;;;;;;8.42;100.00;96421.88;5055892;27;102705;-61
2023/05/17 00:49:53;;;;;;;8.83;7.93;;;;;;;8.42;100.00;96421.88;5053690;27;101913;-61
2023/05/17 00:52:20;;;;;;;10.73;8.43;;;;;;;8.39;100.00;96420.50;5049977;27;102715;-61
2023/05/17 00:55:14;;;;;;;12.77;8.50;;;;;;;8.44;100.00;96428.53;5049981;27;101847;-61
2023/05/17 00:57:41;;;;;;;9.73;8.07;;;;;;;8.47;100.00;96421.97;5054651;27;105576;-61
2023/05/17 01:00:09;;;;;;;10.67;8.20;;;;;;;8.39;100.00;96432.94;5070303;27;103041;-61
2023/05/17 01:02:36;;;;;;;9.17;8.27;;;;;;;8.41;100.00;96436.16;5070538;27;101808;-61
2023/05/17 01:05:03;;;;;;;11.57;8.40;;;;;;;8.37;100.00;96427.88;5064279;27;105809;-61
2023/05/17 01:07:30;;;;;;;10.47;7.93;;;;;;;8.33;100.00;96439.16;5049806;27;103018;-61
2023/05/17 01:09:58;;;;;;;12.47;8.10;;;;;;;8.28;100.00;96436.44;5048840;27;101932;-61
2023/05/17 01:12:39;;;;;;;11.27;8.47;;;;;;;8.32;100.00;96437.56;5068891;27;103645;-61
2023/05/17 01:15:14;;;;;;;10.17;7.70;;;;;;;8.28;100.00;96439.88;5049113;27;101876;-61
2023/05/17 01:17:50;;;;;;;11.07;7.83;;;;;;;8.21;100.00;96441.03;5052326;27;105445;-61
2023/05/17 01:20:24;;;;;;;11.53;8.23;;;;;;;8.23;100.00;96444.28;5065091;27;105384;-61
2023/05/17 01:22:58;;;;;;;10.83;7.60;;;;;;;8.23;100.00;96444.28;5072760;27;101789;-61
2023/05/17 01:25:50;;;;;;;11.87;8.27;;;;;;;8.17;100.00;96447.81;5057590;27;105130;-61
2023/05/17 01:28:21;;;;;;;9.43;7.70;;;;;;;8.13;100.00;96457.28;5065168;27;105720;-61
2023/05/17 01:30:50;;;;;;;10.33;7.40;;;;;;;8.09;100.00;96453.47;5056380;27;103131;-61
2023/05/17 01:33:20;;;;;;;7.37;6.57;;;;;;;8.05;100.00;96452.31;5062729;27;102015;-61
2023/05/17 01:35:47;;;;;;;10.37;7.10;;;;;;;7.98;100.00;96460.41;5071447;27;105473;-61
2023/05/17 01:38:14;;;;;;;8.83;7.27;;;;;;;8.03;100.00;96457.06;5052590;27;105224;-61
2023/05/17 01:40:56;;;;;;;8.17;7.07;;;;;;;8.02;100.00;96460.75;5053011;27;102951;-61
2023/05/17 01:43:48;;;;;;;9.73;6.87;;;;;;;7.98;100.00;96460.41;5054561;27;103484;-61
2023/05/17 01:46:21;;;;;;;9.63;7.57;;;;;;;8.04;100.00;96466.59;5052125;27;103530;-61
2023/05/17 01:48:56;;;;;;;10.27;7.90;;;;;;;8.02;100.00;96466.06;5065533;27;105947;-61
2023/05/17 01:51:28;;;;;;;11.03;7.37;;;;;;;7.89;100.00;96476.88;5063443;27;102263;-61
2023/05/17 01:54:10;;;;;;;10.27;6.80;;;;;;;7.90;100.00;96465.25;5063107;27;105578;-61
2023/05/17 01:56:43;;;;;;;9.83;6.70;;;;;;;7.87;100.00;96473.66;5051311;27;105841;-61
2023/05/17 01:59:15;;;;;;;9.43;7.10;;;;;;;7.90;100.00;96473.22;5055183;27;101849;-61
2023/05/17 02:01:43;;;;;;;10.30;6.33;;;;;;;7.81;100.00;96469.28;5052739;27;102806;-61
2023/05/17 02:04:36;;;;;;;8.13;6.83;;;;;;;7.72;100.00;96481.25;5054464;27;101772;-61
2023/05/17 02:07:03;;;;;;;8.33;6.43;;;;;;;7.73;100.00;96482.84;5056136;27;104032;-61
2023/05/17 02:09:31;;;;;;;9.63;6.93;;;;;;;7.69;100.00;96484.38;5051172;27;105485;-61
2023/05/17 02:11:58;;;;;;;10.10;7.27;;;;;;;7.65;100.00;96485.84;5064455;27;103315;-61
2023/05/17 02:14:47;;;;;;;12.73;7.00;;;;;;;7.72;100.00;96486.53;5071773;27;105504;-61
2023/05/17 02:17:14;;;;;;;9.60;6.97;;;;;;;7.64;100.00;96484.25;5069602;27;105516;-61
2023/05/17 02:19:44;;;;;;;10.33;7.50;;;;;;;7.67;100.00;96494.34;5072054;27;102016;-61
2023/05/17 02:22:10;;;;;;;9.87;7.40;;;;;;;7.60;100.00;96494.50;5055833;27;105495;-61
2023/05/17 02:24:47;;;;;;;8.73;7.23;;;;;;;7.62;100.00;96500.34;5051513;27;103560;-61
2023/05/17 02:27:14;;;;;;;10.30;7.40;;;;;;;7.55;100.00;96497.00;5067564;27;105156;-60
2023/05/17 02:29:41;;;;;;;10.03;7.33;;;;;;;7.54;100.00;96505.16;5070765;27;105839;-61
2023/05/17 02:32:10;;;;;;;8.63;7.40;;;;;;;7.53;100.00;96508.84;5070907;27;101975;-61
2023/05/17 02:38:00;;;;;;;8.30;7.10;;;;;;;7.47;100.00;96504.47;5053664;27;105099;-61
2023/05/17 02:40:27;;;;;;;8.80;6.70;;;;;;;7.52;100.00;96512.53;5051290;27;101982;-61
2023/05/17 02:42:54;;;;;;;10.33;7.30;;;;;;;7.47;100.00;96515.84;5055267;27;105567;-61
2023/05/17 02:45:24;;;;;;;9.47;7.37;;;;;;;7.48;100.00;96511.38;5052655;27;102226;-61
2023/05/17 02:47:52;;;;;;;8.50;7.23;;;;;;;7.49;100.00;96518.28;5071372;27;105246;-61
2023/05/17 02:50:19;;;;;;;10.90;7.70;;;;;;;7.49;100.00;96534.16;5060958;27;102767;-61
2023/05/17 02:52:46;;;;;;;10.33;7.70;;;;;;;7.46;100.00;96526.66;5053248;27;101848;-61
2023/05/17 02:55:47;;;;;;;11.47;7.80;;;;;;;7.49;100.00;96526.22;5071514;27;105538;-61
2023/05/17 02:58:14;;;;;;;9.33;7.77;;;;;;;7.50;100.00;96531.28;5070059;27;105593;-61
2023/05/17 03:00:45;;;;;;;10.97;7.57;;;;;;;7.43;100.00;96532.41;5071188;27;101903;-61
2023/05/17 03:03:13;;;;;;;12.70;7.93;;;;;;;7.46;100.00;96535.41;5053468;27;105358;-61
2023/05/17 03:05:40;;;;;;;9.83;7.67;;;;;;;7.35;100.00;96536.19;5053613;27;105033;-61
2023/05/17 03:08:07;;;;;;;9.73;6.80;;;;;;;7.33;100.00;96540.91;5050967;27;104786;-61
2023/05/17 03:10:34;;;;;;;10.53;7.47;;;;;;;7.38;100.00;96553.44;5050188;27;103747;-61
2023/05/17 03:13:01;;;;;;;11.40;7.87;;;;;;;7.46;100.00;96545.16;5066105;27;101918;-61
2023/05/17 03:15:32;;;;;;;10.00;7.70;;;;;;;7.41;100.00;96548.50;5071252;27;105129;-61
2023/05/17 03:17:59;;;;;;;8.57;7.60;;;;;;;7.37;100.00;96549.19;5069981;27;105615;-61
2023/05/17 03:20:28;;;;;;;7.83;7.07;;;;;;;7.31;100.00;96552.75;5071053;27;102113;-61
2023/05/17 03:22:56;;;;;;;11.57;8.03;;;;;;;7.20;100.00;96556.94;5065569;27;104749;-61
2023/05/17 03:25:24;;;;;;;8.03;6.80;;;;;;;7.25;100.00;96559.72;5049931;27;105144;-61
2023/05/17 03:27:51;;;;;;;9.50;7.90;;;;;;;7.21;100.00;96555.13;5074364;27;102018;-61
2023/05/17 03:30:18;;;;;;;10.00;7.47;;;;;;;7.23;100.00;96563.63;5070120;27;105751;-61
2023/05/17 03:32:46;;;;;;;8.50;7.53;;;;;;;7.19;100.00;96565.94;5052974;27;101930;-60
2023/05/17 03:35:23;;;;;;;10.00;7.47;;;;;;;7.18;100.00;96569.59;5071089;27;104426;-61
2023/05/17 03:37:55;;;;;;;11.43;8.33;;;;;;;7.15;100.00;96570.03;5069803;27;105538;-61
2023/05/17 03:40:24;;;;;;;10.20;7.33;;;;;;;7.13;100.00;96581.88;5070714;27;102437;-61
2023/05/17 03:42:52;;;;;;;9.90;7.60;;;;;;;7.17;100.00;96580.41;5052892;27;104654;-61
2023/05/17 03:45:32;;;;;;;10.10;7.50;;;;;;;7.20;100.00;96582.63;5070149;27;105325;-61
2023/05/17 03:47:59;;;;;;;12.30;7.63;;;;;;;7.17;100.00;96585.69;5051708;27;101801;-61
2023/05/17 03:50:28;;;;;;;10.20;7.53;;;;;;;7.29;100.00;96590.00;5053893;27;104910;-61
2023/05/17 03:52:57;;;;;;;7.73;7.03;;;;;;;7.32;100.00;96586.09;5054673;27;102007;-61
2023/05/17 03:55:24;;;;;;;8.43;7.47;;;;;;;7.20;100.00;96598.47;5061352;27;103792;-61
2023/05/17 03:57:51;;;;;;;8.73;7.50;;;;;;;7.23;100.00;96600.66;5049527;27;105504;-61
2023/05/17 04:00:20;;;;;;;8.27;6.57;;;;;;;7.31;100.00;96600.38;5051258;27;101928;-61
2023/05/17 04:02:52;;;;;;;9.20;7.60;;;;;;;7.34;100.00;96602.53;5051029;27;104550;-61
2023/05/17 04:05:32;;;;;;;7.50;6.60;;;;;;;7.16;100.00;96607.88;5050717;27;102688;-61
2023/05/17 04:08:01;;;;;;;7.83;6.33;;;;;;;7.22;100.00;96610.44;5049964;27;101995;-61
2023/05/17 04:10:28;;;;;;;10.70;6.50;;;;;;;7.25;100.00;96614.50;5049743;27;105164;-61
2023/05/17 04:12:55;;;;;;;8.57;6.23;;;;;;;7.18;100.00;96621.69;5053644;27;105327;-61
2023/05/17 04:15:23;;;;;;;9.93;6.90;;;;;;;7.18;100.00;96621.69;5050749;27;104175;-61
2023/05/17 04:17:50;;;;;;;7.60;6.10;;;;;;;7.10;100.00;96625.44;5049087;27;105411;-61
2023/05/17 04:20:17;;;;;;;8.77;6.63;;;;;;;7.16;100.00;96618.47;5061624;27;101795;-61
2023/05/17 04:22:44;;;;;;;11.77;6.80;;;;;;;7.26;100.00;96624.03;5060573;27;105403;-61
2023/05/17 04:25:43;;;;;;;10.63;6.60;;;;;;;7.21;100.00;96634.47;5061658;27;104721;-61
2023/05/17 04:28:11;;;;;;;9.17;6.07;;;;;;;7.27;100.00;96636.22;5068030;27;101892;-61
2023/05/17 04:30:42;;;;;;;6.97;6.20;;;;;;;7.26;100.00;96631.97;5060938;27;105309;-61
2023/05/17 04:33:09;;;;;;;10.40;6.30;;;;;;;7.23;100.00;96637.69;5062286;27;102687;-61
2023/05/17 04:35:38;;;;;;;8.33;6.30;;;;;;;7.22;100.00;96644.84;5068552;27;102135;-61
2023/05/17 04:38:08;;;;;;;7.80;6.27;;;;;;;7.28;100.00;96645.75;5057493;27;105467;-61
2023/05/17 04:40:35;;;;;;;6.57;5.77;;;;;;;7.34;100.00;96652.81;5067757;27;102140;-61
2023/05/17 04:43:04;;;;;;;7.10;5.77;;;;;;;7.29;100.00;96656.13;5060391;27;105285;-61
2023/05/17 04:45:32;;;;;;;7.70;5.53;;;;;;;7.25;100.00;96646.22;5067614;27;105342;-61
2023/05/17 04:47:59;;;;;;;8.50;5.70;;;;;;;7.29;100.00;96650.03;5049595;27;101962;-61
2023/05/17 04:50:27;;;;;;;9.33;6.27;;;;;;;7.31;100.00;96653.28;5050230;27;105844;-61
2023/05/17 04:52:55;;;;;;;9.70;6.10;;;;;;;7.21;100.00;96656.41;5057497;27;105517;-61
2023/05/17 04:55:25;;;;;;;8.43;5.70;;;;;;;7.14;100.00;96662.84;5072875;27;102274;-61
2023/05/17 04:57:52;;;;;;;8.90;5.70;;;;;;;7.17;100.00;96663.22;5069070;27;105745;-61
2023/05/17 05:00:22;;;;;;;9.23;6.07;;;;;;;7.29;100.00;96666.72;5069397;27;102013;-60
2023/05/17 05:02:56;;;;;;;10.37;5.93;;;;;;;7.28;100.00;96661.63;5069472;27;104962;-60
2023/05/17 05:05:32;;;;;;;9.97;6.20;;;;;;;7.33;100.00;96664.41;5053502;27;106343;-60
2023/05/17 05:07:58;;;;;;;10.23;7.00;;;;;;;7.38;100.00;96673.31;5049063;27;101826;-60
2023/05/17 05:10:27;;;;;;;8.57;6.30;;;;;;;7.33;100.00;96677.66;5049054;27;105214;-60
2023/05/17 05:12:56;;;;;;;7.30;6.57;;;;;;;7.37;100.00;96684.91;5048382;27;104992;-60
2023/05/17 05:15:28;;;;;;;9.27;6.17;;;;;;;7.23;100.00;96683.47;5048931;27;102027;-60
2023/05/17 05:17:58;;;;;;;8.87;5.93;;;;;;;7.30;100.00;96684.19;5051670;27;105468;-60
2023/05/17 05:20:25;;;;;;;9.27;6.77;;;;;;;7.40;100.00;96676.53;5048815;27;102199;-60
2023/05/17 05:22:52;;;;;;;7.53;6.27;;;;;;;7.42;100.00;96685.06;5048606;27;104772;-60
2023/05/17 05:25:27;;;;;;;8.67;6.27;;;;;;;7.31;100.00;96679.72;5048164;27;103902;-60
2023/05/17 05:27:54;;;;;;;8.50;6.33;;;;;;;7.28;100.00;96683.63;5048113;27;101840;-60
2023/05/17 05:30:22;;;;;;;6.80;6.10;;;;;;;7.28;100.00;96685.44;5048537;27;105021;-60
2023/05/17 05:32:52;;;;;;;6.83;6.07;;;;;;;7.26;100.00;96688.31;5048066;27;105732;-60
2023/05/17 05:35:29;;;;;;;7.53;6.17;;;;;;;7.31;100.00;96691.09;5064068;27;103564;-60
2023/05/17 05:37:58;;;;;;;7.70;6.00;;;;;;;7.25;100.00;96691.19;5049940;27;105009;-60
2023/05/17 05:40:25;;;;;;;11.63;6.27;;;;;;;7.26;100.00;96692.81;5052730;27;101809;-60
2023/05/17 05:42:52;;;;;;;12.40;7.00;;;;;;;7.22;100.00;96705.66;5048903;27;105183;-60
2023/05/17 05:45:25;;;;;;;8.17;5.97;;;;;;;7.23;100.00;96698.53;5047818;27;105672;-60
2023/05/17 05:47:56;;;;;;;7.30;5.77;;;;;;;7.23;100.00;96694.06;5067642;27;103389;-60
2023/05/17 05:50:23;;;;;;;9.17;6.40;;;;;;;7.31;100.00;96706.19;5068855;27;104314;-60
2023/05/17 05:52:52;;;;;;;7.30;5.13;;;;;;;7.16;100.00;96708.38;5067987;27;105283;-60
2023/05/17 05:55:41;;;;;;;8.70;5.23;;;;;;;7.19;100.00;96702.66;5068487;27;101900;-60
2023/05/17 05:58:08;;;;;;;10.50;6.20;;;;;;;7.22;100.00;96718.06;5068739;27;105274;-60
2023/05/17 06:00:37;;;;;;;7.03;5.50;;;;;;;7.30;100.00;96715.16;5051010;27;105067;-60
2023/05/17 06:03:07;;;;;;;9.60;5.13;;;;;;;7.28;100.00;96714.53;5053571;27;101828;-60
2023/05/17 06:05:34;;;;;;;7.17;5.80;;;;;;;7.30;100.00;96715.94;5048233;27;105469;-60
2023/05/17 06:08:01;;;;;;;8.20;5.10;;;;;;;7.21;100.00;96711.16;5053219;27;102327;-60
2023/05/17 06:10:28;;;;;;;7.33;5.23;;;;;;;7.23;100.00;96711.75;5068490;27;102496;-60
2023/05/17 06:12:55;;;;;;;6.37;4.77;;;;;;;7.18;100.00;96712.41;5054258;27;102583;-60
2023/05/17 06:15:21;;;;;;;8.03;4.40;;;;;;;7.13;100.00;96714.91;5069159;27;101905;-60
2023/05/17 06:17:49;;;;;;;7.27;4.83;;;;;;;7.14;100.00;96724.47;5072043;27;105560;-60
2023/05/17 06:20:17;;;;;;;8.20;4.63;;;;;;;7.10;100.00;96728.56;5070777;27;105561;-60
2023/05/17 06:22:44;;;;;;;9.10;4.90;;;;;;;7.20;100.00;96726.22;5070957;27;102099;-60
2023/05/17 06:25:15;;;;;;;5.53;4.40;;;;;;;7.26;100.00;96727.97;5069164;27;103874;-59
2023/05/17 06:27:42;;;;;;;7.20;5.00;;;;;;;7.35;100.00;96728.47;5064448;27;101835;-60
2023/05/17 06:30:10;;;;;;;8.40;4.87;;;;;;;7.26;100.00;96729.84;5051528;27;105586;-69
2023/05/17 06:32:37;;;;;;;6.23;4.83;;;;;;;7.25;100.00;96733.50;5051954;27;102796;-66
2023/05/17 06:35:06;;;;;;;6.07;4.33;;;;;;;7.35;100.00;96745.19;5051405;27;101953;-63
2023/05/17 06:37:35;;;;;;;6.13;4.57;;;;;;;7.32;100.00;96742.16;5068369;27;102335;-62
2023/05/17 06:40:04;;;;;;;5.93;4.70;;;;;;;7.39;100.00;96740.25;5053437;27;102531;-60
2023/05/17 06:42:31;;;;;;;7.77;4.67;;;;;;;7.32;100.00;96745.59;5051189;27;101960;-59
2023/05/17 06:45:06;;;;;;;6.83;4.70;;;;;;;7.26;100.00;96751.00;5051085;27;105219;-63
2023/05/17 06:47:33;;;;;;;4.87;4.00;;;;;;;7.28;100.00;96755.03;5055527;27;101768;-61
2023/05/17 06:50:00;;;;;;;6.60;4.90;;;;;;;7.45;100.00;96757.88;5050939;27;105673;-61
2023/05/17 06:52:27;;;;;;;7.67;4.57;;;;;;;7.32;100.00;96755.41;5053866;27;103696;-62
2023/05/17 06:54:55;;;;;;;6.90;4.63;;;;;;;7.46;100.00;96760.31;5070177;27;102946;-62
2023/05/17 06:57:23;;;;;;;10.07;4.70;;;;;;;7.42;100.00;96766.28;5068474;27;105136;-62
2023/05/17 06:59:51;;;;;;;8.07;4.77;;;;;;;7.56;100.00;96771.19;5050380;27;105900;-61
2023/05/17 07:02:17;;;;;;;8.83;4.70;;;;;;;7.44;100.00;96770.31;5058483;27;102922;-62
2023/05/17 07:04:50;;;;;;;5.93;4.50;;;;;;;7.50;100.00;96780.00;5071011;27;105148;-62
2023/05/17 07:07:18;;;;;;;8.17;4.63;;;;;;;7.21;100.00;96778.09;5073953;27;105291;-61
2023/05/17 07:09:47;;;;;;;5.23;3.70;;;;;;;7.26;100.00;96777.44;5071228;27;104000;-62
2023/05/17 07:12:15;;;;;;;5.33;4.50;;;;;;;7.29;100.00;96788.38;5066851;27;105178;-62
2023/05/17 07:15:02;;;;;;;4.23;3.93;;;;;;;7.45;100.00;96779.03;5070786;27;101863;-61
2023/05/17 07:17:29;;;;;;;4.93;4.03;;;;;;;7.42;100.00;96782.16;5070621;27;104908;-62
2023/05/17 07:19:56;;;;;;;7.53;4.10;;;;;;;7.36;100.00;96788.31;5070585;27;105597;-61
2023/05/17 07:22:24;;;;;;;7.83;3.87;;;;;;;7.34;100.00;96787.72;5070912;27;102130;-61
2023/05/17 07:24:55;;;;;;;4.23;3.80;;;;;;;7.48;100.00;96783.91;5070700;27;105279;-61
2023/05/17 07:27:24;;;;;;;5.73;3.80;;;;;;;7.36;100.00;96791.75;5070378;27;105426;-61
2023/05/17 07:29:51;;;;;;;5.33;3.40;;;;;;;7.25;100.00;96781.91;5074409;27;101876;-61
2023/05/17 07:32:18;;;;;;;6.00;4.70;;;;;;;7.31;100.00;96788.19;5070177;27;104212;-62
2023/05/17 07:35:40;;;;;;;8.30;3.67;;;;;;;7.37;100.00;96787.28;5070777;27;102262;-61
2023/05/17 07:38:07;;;;;;;6.67;3.67;;;;;;;7.27;100.00;96792.28;5070741;27;105734;-61
2023/05/17 07:40:35;;;;;;;8.17;4.10;;;;;;;7.35;100.00;96786.69;5070152;27;105388;-60
2023/05/17 07:43:04;;;;;;;7.50;4.07;;;;;;;7.36;100.00;96793.63;5070598;27;101860;-60
2023/05/17 07:45:31;;;;;;;8.13;3.93;;;;;;;7.35;100.00;96784.88;5063486;27;105685;-60
2023/05/17 07:47:58;;;;;;;6.80;4.00;;;;;;;7.44;100.00;96785.38;5049453;27;105330;-61
2023/05/17 07:50:25;;;;;;;5.30;3.20;;;;;;;7.38;100.00;96787.09;5050292;27;101990;-61
2023/05/17 07:52:53;;;;;;;7.67;4.43;;;;;;;7.35;100.00;96786.69;5073723;27;102290;-61
2023/05/17 07:55:21;;;;;;;7.77;4.10;;;;;;;7.46;100.00;96788.59;5070988;27;101876;-61
2023/05/17 07:57:48;;;;;;;7.63;3.93;;;;;;;7.61;100.00;96783.75;5070472;27;105104;-61
2023/05/17 08:00:18;;;;;;;6.53;4.27;;;;;;;7.55;100.00;96782.81;5057773;27;105431;-61
2023/05/17 08:02:45;;;;;;;5.23;3.47;;;;;;;7.80;100.00;96788.00;5059297;27;102736;-61
2023/05/17 08:05:23;;;;;;;5.33;3.30;;;;;;;7.90;100.00;96790.94;5071846;27;102565;-61
2023/05/17 08:07:51;;;;;;;6.67;3.60;;;;;;;7.93;100.00;96790.47;5070952;27;103052;-61
2023/05/17 08:10:17;;;;;;;7.13;3.83;;;;;;;7.80;100.00;96796.72;5070123;27;102066;-61
2023/05/17 08:12:44;;;;;;;6.17;3.63;;;;;;;7.81;100.00;96793.06;5069898;27;105231;-60
2023/05/17 08:15:30;;;;;;;4.67;3.27;;;;;;;7.65;100.00;96793.69;5071012;27;105227;-61
2023/05/17 08:17:57;;;;;;;5.83;3.40;;;;;;;7.73;100.00;96808.44;5060285;27;102390;-61
2023/05/17 08:20:24;;;;;;;3.80;3.37;;;;;;;7.85;100.00;96815.41;5054828;27;105235;-61
2023/05/17 08:22:51;;;;;;;7.07;3.73;;;;;;;7.85;100.00;96815.41;5057578;27;102397;-62
2023/05/17 08:25:19;;;;;;;5.77;3.13;;;;;;;7.77;100.00;96813.06;5066175;27;105129;-62
2023/05/17 08:27:46;;;;;;;3.37;2.60;;;;;;;7.75;100.00;96820.41;5065469;27;105277;-61
2023/05/17 08:30:13;;;;;;;5.73;3.93;;;;;;;7.93;100.00;96828.34;5069445;27;101806;-61
2023/05/17 08:32:43;;;;;;;6.60;3.83;;;;;;;7.95;100.00;96836.88;5069826;27;105205;-62
2023/05/17 08:35:12;;;;;;;7.00;3.60;;;;;;;8.02;100.00;96844.75;5069278;27;105103;-61
2023/05/17 08:37:39;;;;;;;6.10;3.93;;;;;;;8.08;100.00;96852.59;5073419;27;101783;-61
2023/05/17 08:40:07;;;;;;;6.30;3.17;;;;;;;7.98;100.00;96851.50;5053971;27;105233;-61
2023/05/17 08:42:36;;;;;;;4.50;2.70;;;;;;;7.97;100.00;96855.19;5055024;27;102192;-62
2023/05/17 08:45:07;;;;;;;4.20;2.87;;;;;;;7.96;100.00;96858.88;5069365;27;104845;-61
2023/05/17 08:47:36;;;;;;;2.80;2.60;;;;;;;8.07;100.00;96855.50;5069062;27;104956;-61
2023/05/17 08:50:06;;;;;;;4.63;3.17;;;;;;;8.04;100.00;96858.56;5056028;27;101816;-61
2023/05/17 08:52:33;;;;;;;3.10;2.87;;;;;;;8.04;100.00;96862.03;5055526;27;101988;-62
2023/05/17 08:55:20;;;;;;;5.17;2.93;;;;;;;8.07;100.00;96863.44;5070252;27;103119;-64
2023/05/17 08:57:50;;;;;;;5.10;3.20;;;;;;;7.99;100.00;96859.25;5074418;27;101920;-61
2023/05/17 09:00:21;;;;;;;5.80;2.90;;;;;;;8.06;100.00;96861.78;5069120;27;104017;-61
2023/05/17 09:02:49;;;;;;;4.30;2.90;;;;;;;7.93;100.00;96857.50;5069657;27;101806;-61
2023/05/17 09:05:39;;;;;;;8.83;3.33;;;;;;;7.95;100.00;96867.84;5069649;27;105124;-61
2023/05/17 09:08:06;;;;;;;19.53;9.37;;;;;;;7.98;100.00;96857.63;5068515;27;105328;-61
2023/05/17 09:10:33;;;;;;;6.40;3.57;;;;;;;7.92;100.00;96857.72;5069325;27;101973;-61
2023/05/17 09:13:00;;;;;;;7.00;3.63;;;;;;;7.98;100.00;96856.81;5070312;27;102275;-61
2023/05/17 09:15:29;;;;;;;3.10;2.80;;;;;;;7.98;100.00;96852.34;5065818;27;102811;-61
2023/05/17 09:17:57;;;;;;;4.57;2.77;;;;;;;7.92;100.00;96852.41;5050319;27;101911;-61
2023/05/17 09:20:24;;;;;;;4.37;2.87;;;;;;;8.14;100.00;96854.38;5051661;27;105194;-63
2023/05/17 09:22:53;;;;;;;4.23;3.00;;;;;;;8.10;100.00;96858.50;5048836;27;102047;-62
2023/05/17 09:26:08;;;;;;;5.60;3.00;;;;;;;8.13;100.00;96865.19;5059476;27;105654;-62
2023/05/17 09:28:41;;;;;;;5.07;3.17;;;;;;;8.29;100.00;96870.69;5068029;27;105686;-62
2023/05/17 09:31:08;;;;;;;5.33;2.60;;;;;;;8.37;100.00;96869.56;5069121;27;101864;-62
2023/05/17 09:34:24;;;;;;;8.70;2.57;;;;;;;8.49;100.00;96870.41;5056392;27;105169;-62
2023/05/17 09:36:51;;;;;;;2.77;2.20;;;;;;;8.33;100.00;96866.56;5048029;27;106301;-62
2023/05/17 09:39:19;;;;;;;5.93;2.37;;;;;;;8.38;100.00;96858.75;5070345;27;101960;-62
2023/05/17 09:41:48;;;;;;;4.77;2.10;;;;;;;8.46;100.00;96854.97;5058635;27;102361;-62
2023/05/17 09:44:16;;;;;;;4.03;1.90;;;;;;;8.62;100.00;96864.94;5073843;27;105755;-62
2023/05/17 09:46:46;;;;;;;4.13;2.27;;;;;;;8.63;100.00;96867.38;5074171;27;102886;-62
2023/05/17 09:49:13;;;;;;;3.23;2.20;;;;;;;8.71;100.00;96859.09;5073119;27;103193;-62
2023/05/17 09:51:42;;;;;;;3.73;2.37;;;;;;;8.80;100.00;96862.22;5072577;27;101929;-61
2023/05/17 09:54:20;;;;;;;4.90;2.30;;;;;;;8.84;100.00;96855.44;5072186;27;102267;-61
2023/05/17 09:56:53;;;;;;;4.60;2.80;;;;;;;8.90;100.00;96862.47;5073358;27;102720;-61
2023/05/17 09:59:21;;;;;;;5.17;2.67;;;;;;;8.78;100.00;96853.69;5073977;27;102067;-61
2023/05/17 10:01:53;;;;;;;5.23;2.80;;;;;;;8.85;100.00;96857.03;5073703;27;102958;-61
2023/05/17 10:04:24;;;;;;;4.30;2.60;;;;;;;8.94;100.00;96855.69;5072973;27;103066;-62
2023/05/17 10:06:53;;;;;;;8.67;3.00;;;;;;;8.85;100.00;96865.81;5068172;27;101876;-61
2023/05/17 10:09:22;;;;;;;3.03;2.03;;;;;;;8.78;100.00;96856.34;5072930;27;103130;-61
2023/05/17 10:11:52;;;;;;;7.37;2.40;;;;;;;8.98;100.00;96852.34;5053473;27;102167;-61
2023/05/17 10:14:31;;;;;;;6.07;2.77;;;;;;;8.98;100.00;96859.47;5061198;27;102439;-61
2023/05/17 10:16:58;;;;;;;6.37;3.10;;;;;;;8.86;100.00;96862.13;5052587;27;103174;-61
2023/05/17 10:19:25;;;;;;;6.73;2.50;;;;;;;8.72;100.00;96863.34;5072943;27;103864;-61
2023/05/17 10:21:53;;;;;;;4.40;2.50;;;;;;;8.70;100.00;96862.78;5073343;27;102801;-62
2023/05/17 10:24:29;;;;;;;4.17;2.50;;;;;;;8.68;100.00;96859.53;5070948;27;105279;-62
2023/05/17 10:26:57;;;;;;;3.73;2.33;;;;;;;8.83;100.00;96861.78;5073603;27;101665;-61
2023/05/17 10:29:24;;;;;;;8.17;2.60;;;;;;;8.84;100.00;96858.09;5075656;27;102856;-62
2023/05/17 10:31:51;;;;;;;4.73;2.60;;;;;;;8.85;100.00;96849.09;5071842;27;101885;-62
2023/05/17 10:34:20;;;;;;;5.53;3.30;;;;;;;8.78;100.00;96853.69;5071518;27;103771;-61
2023/05/17 10:36:49;;;;;;;7.50;3.70;;;;;;;8.67;100.00;96851.81;5061853;27;105530;-61
2023/05/17 10:39:17;;;;;;;6.13;2.97;;;;;;;8.71;100.00;96858.25;5071716;27;101857;-61
2023/05/17 10:41:49;;;;;;;10.30;4.73;;;;;;;8.99;100.00;96851.28;5060787;27;103611;-61
2023/05/17 10:44:42;;;;;;;5.30;2.57;;;;;;;8.82;100.00;96854.84;5068541;27;105335;-61
2023/05/17 10:47:11;;;;;;;5.90;2.80;;;;;;;8.88;100.00;96859.25;5071358;27;101984;-61
2023/05/17 10:49:40;;;;;;;5.47;2.50;;;;;;;9.28;100.00;96849.59;5071509;27;105253;-61
2023/05/17 10:52:14;;;;;;;6.33;3.87;;;;;;;9.25;100.00;96850.03;5073572;27;105159;-62
2023/05/17 10:54:45;;;;;;;7.30;3.00;;;;;;;9.20;100.00;96849.91;5052094;27;102500;-61
2023/05/17 10:57:21;;;;;;;9.67;5.93;;;;;;;9.39;100.00;96862.06;5050351;27;105842;-62
2023/05/17 10:59:59;;;;;;;4.77;3.73;;;;;;;9.48;100.00;96852.72;5058732;27;102350;-62
2023/05/17 11:02:27;;;;;;;6.93;3.00;;;;;;;9.67;100.00;96846.22;5054237;27;102301;-62
2023/05/17 11:04:56;;;;;;;5.50;2.63;;;;;;;9.95;100.00;96856.91;5070569;27;105714;-62
2023/05/17 11:07:26;;;;;;;4.73;2.47;;;;;;;9.73;100.00;96845.28;5071218;27;101918;-61
2023/05/17 11:09:54;;;;;;;4.97;3.43;;;;;;;9.81;100.00;96851.03;5072604;27;102328;-61
2023/05/17 11:12:32;;;;;;;4.60;2.60;;;;;;;9.76;100.00;96842.16;5075293;27;103072;-61
2023/05/17 11:15:00;;;;;;;5.63;3.40;;;;;;;9.91;100.00;96850.44;5072850;27;101685;-62
2023/05/17 11:17:34;;;;;;;5.77;3.00;;;;;;;9.89;100.00;96842.72;5071579;27;102567;-60
2023/05/17 11:20:08;;;;;;;4.83;3.10;;;;;;;10.13;100.00;96843.47;5072580;27;102043;-60
2023/05/17 11:22:38;;;;;;;4.83;3.13;;;;;;;10.20;100.00;96844.94;5070982;27;105242;-60
2023/05/17 11:25:44;;;;;;;3.83;2.80;;;;;;;10.36;100.00;96844.19;5071468;27;102598;-61
2023/05/17 11:28:19;;;;;;;3.30;2.53;;;;;;;10.59;100.00;96840.63;5071774;27;105167;-61
2023/05/17 11:30:50;;;;;;;5.00;2.90;;;;;;;10.73;100.00;96840.09;5071087;27;105358;-60
2023/05/17 11:33:40;;;;;;;3.10;2.37;;;;;;;10.65;100.00;96837.00;5070103;27;105454;-61
2023/05/17 11:36:15;;;;;;;3.10;2.60;;;;;;;10.97;100.00;96825.56;5074122;27;103405;-60
2023/05/17 11:38:42;;;;;;;3.87;2.20;;;;;;;10.63;100.00;96831.13;5056689;27;105004;-60
2023/05/17 11:41:20;;;;;;;4.30;2.57;;;;;;;11.05;100.00;96827.84;5051711;27;101858;-60
2023/05/17 11:43:55;;;;;;;3.00;2.30;;;;;;;11.12;100.00;96825.03;5051467;27;102375;-61
2023/05/17 11:46:23;;;;;;;3.40;2.13;;;;;;;11.42;100.00;96828.97;5049766;27;105296;-61
2023/05/17 11:48:52;;;;;;;2.93;2.33;;;;;;;11.42;100.00;96822.81;5063573;27;102293;-61